Cap-de-la-Madeleine, Canada
Current Conditions -  °F | °C
As of 10:00 PM on Friday 21 Nov 2014 (Local Time) from CYRQ Reporting Station
Clear Clear  
Wind Chill: -16°   Ceiling: Unl
Heat Index: -10°   Visibility: 9mi
Dew Point: -15°   Wind: 7mph
Humidity: 67%   Direction: 240°WSW
Pressure: 30.29"   Gusts: NA
Location:  46.38°N, 72.55°W
Report Text: CYRQ 220300Z AUTO 24006KT 9SM CLR M10/M15 A3029 RMK SLP263
Loading
Personal Weather Stations






























Interactive Weather Map New forecast layout! Learn more

10-Day Weather Forecast

Advertisements
Track Severe Weather on mobile